• pl
  • eng

Awiacja
WIADOMOŚCI
ostatnia aktualizacja: 06.03.2019 14:41
Szanowni Państwo,

uprzejmie informujemy, że z dniem 01.01.2019 roku z obszaru MOLC zostało wyłączone BPM we Wrocławiu. Jego zadania zostały przejęte przez BPM w Krakowie.

TAF dla lotnisk wojskowych 12:30 24.03.2019

TAF EPCE 240800Z 2409/2418 28009KT CAVOK TEMPO 2409/2414 BKN020=

TAF EPCE 241100Z 2412/2421 27009KT CAVOK TEMPO 2412/2414 BKN020=

TAF COR EPDA 240800Z 2409/2418 26006KT CAVOK PROB30 2409/2412 BKN010=

TAF COR EPDA 240800Z 2409/2418 26006KT CAVOK PROB30 2409/2412 BKN010
=

TAF EPDA 241100Z 2412/2421 26007KT 9999 FEW010 PROB40 2412/2415
BKN010=

TAF COR EPDE 100855Z 25018KT 9999 BKN034
PROB40 TEMPO 1009/1012 26018G28KT
BECMG 1014/1017 20010KT
BECMG 1017/1018 7000 RA SCT017 OVC030=

TAF COR EPDE 100845Z 25018KT 9999 BKN034
PROB40 TEMPO 1009/1012 26018G28KT
BECMG 1014/1017 20010KT
BECMG 1017/1018 7000 RA SCT017 OVC030=

TAF EPKS 240800Z 2409/2418 29006KT CAVOK=

TAF EPKS 241100Z 2412/2421 29006KT CAVOK=

TAF EPLY 241100Z 2412/2421 29008KT CAVOK=

TAF EPMI 240800Z 2409/2418 32006KT CAVOK=

TAF EPMM 240800Z 2409/2418 30010KT CAVOK=

TAF EPMM 241100Z 2412/2421 30010KT CAVOK BECMG 2418/2420 VRB02KT=

TAF EPOK 240800Z 2409/2418 28012KT CAVOK PROB30 TEMPO 2409/2412
SCT014=

TAF EPOK 241100Z 2412/2421 29012KT CAVOK =

TAF EPPW 240800Z 2409/2418 28008KT CAVOK=

TAF EPPW 241100Z 2412/2421 29008KT CAVOK=

TAF EPSN 240800Z 2409/2418 27008KT CAVOK=

TAF EPSN 241100Z 2412/2421 27008KT CAVOK=

TAF EPTM 240800Z 2409/2418 31008KT CAVOK=

TAF EPTM 241100Z 2412/2421 34008KT CAVOK BECMG 2416/2418 SCT025=
Awiacja.imgw.pl jest pogodowym serwisem informacyjnym
Instytutu Meteorologii i Gospodarki Wodnej Państwowego Instytutu Badawczego.
Copyright IMGW PIB 2009-2011© Wszelkie prawa zastrzeżone.